Time;durP1;ratioP1;P1;durP2;ratioP2;P2;SDS_P1;SDS_P2;PMS_P1;PMS_P2;Temp;Humidity;BMP_temperature;BMP_pressure;BME280_temperature;BME280_humidity;BME280_pressure;Samples;Min_cycle;Max_cycle;Signal;HPM_P1;HPM_P2
2022/04/22 00:00:49;;;;;;;3.00;2.50;;;;;;;11.43;56.30;100978.81;4967791;28;99095;-82
2022/04/22 00:03:14;;;;;;;5.80;3.07;;;;;;;11.41;56.17;100970.28;4970749;28;96858;-82
2022/04/22 00:05:40;;;;;;;4.43;3.50;;;;;;;11.42;56.19;100982.81;4968109;28;97498;-82
2022/04/22 00:08:06;;;;;;;3.27;2.97;;;;;;;11.43;56.49;100965.03;4973442;28;97231;-82
2022/04/22 00:10:32;;;;;;;2.93;2.70;;;;;;;11.42;56.26;100963.53;4970162;28;99799;-82
2022/04/22 00:12:57;;;;;;;3.10;2.90;;;;;;;11.42;56.25;100968.28;4968135;28;97561;-82
2022/04/22 00:15:23;;;;;;;3.23;2.93;;;;;;;11.41;56.22;100975.78;4972820;28;96891;-83
2022/04/22 00:17:48;;;;;;;3.80;2.70;;;;;;;11.42;56.38;100969.06;4965527;28;97037;-82
2022/04/22 00:20:14;;;;;;;5.83;2.70;;;;;;;11.41;56.50;100966.78;4974382;28;98115;-82
2022/04/22 00:22:40;;;;;;;3.23;3.00;;;;;;;11.42;56.44;101002.13;4979201;28;98945;-82
2022/04/22 00:25:11;;;;;;;3.80;2.80;;;;;;;11.46;56.49;100968.81;4975128;28;96921;-82
2022/04/22 00:27:38;;;;;;;2.93;2.67;;;;;;;11.49;56.34;100960.31;4989084;28;96267;-82
2022/04/22 00:30:08;;;;;;;3.10;2.90;;;;;;;11.46;56.72;100946.78;4971462;28;99660;-81
2022/04/22 00:32:34;;;;;;;3.43;3.13;;;;;;;11.41;56.63;100955.75;4998159;28;96570;-82
2022/04/22 00:35:01;;;;;;;3.50;3.00;;;;;;;11.37;56.55;100950.47;4988965;28;96938;-82
2022/04/22 00:37:26;;;;;;;3.70;3.20;;;;;;;11.39;56.58;100955.50;4998958;28;97068;-83
2022/04/22 00:39:52;;;;;;;4.00;3.13;;;;;;;11.37;56.88;100942.22;4987172;28;96861;-82
2022/04/22 00:42:18;;;;;;;3.47;2.73;;;;;;;11.33;56.71;100958.94;4987606;28;97012;-82
2022/04/22 00:44:43;;;;;;;3.07;2.87;;;;;;;11.30;56.87;100945.41;4983183;28;96355;-82
2022/04/22 00:47:08;;;;;;;2.60;2.40;;;;;;;11.28;56.85;100943.16;4988825;28;96613;-82
2022/04/22 00:49:34;;;;;;;3.73;3.10;;;;;;;11.23;57.19;100941.09;4991276;28;96899;-81
2022/04/22 00:52:00;;;;;;;3.67;3.33;;;;;;;11.25;57.33;100946.13;4980912;28;97573;-82
2022/04/22 00:54:26;;;;;;;3.77;2.73;;;;;;;11.28;57.13;100947.91;4973865;28;97254;-81
2022/04/22 00:56:52;;;;;;;4.33;3.70;;;;;;;11.27;57.16;100957.41;4975436;28;96981;-82
2022/04/22 00:59:18;;;;;;;3.33;2.90;;;;;;;11.27;57.62;100941.63;4955359;28;97894;-82
2022/04/22 01:01:43;;;;;;;3.50;3.10;;;;;;;11.31;57.41;100927.66;4968800;28;97237;-82
2022/04/22 01:09:51;;;;;;;3.97;2.70;;;;;;;11.31;57.43;100930.41;4967958;28;96616;-82
2022/04/22 01:12:17;;;;;;;3.00;2.60;;;;;;;11.29;57.56;100919.13;4965572;28;97182;-81
2022/04/22 01:14:44;;;;;;;2.77;2.40;;;;;;;11.34;57.52;100926.66;4968084;28;96986;-82
2022/04/22 01:17:09;;;;;;;2.70;2.50;;;;;;;11.39;57.53;100920.44;4982623;28;97207;-82
2022/04/22 01:19:35;;;;;;;3.30;2.83;;;;;;;11.41;57.24;100917.94;4967032;28;99045;-82
2022/04/22 01:22:01;;;;;;;3.60;2.40;;;;;;;11.44;57.29;100916.97;4975332;28;99220;-81
2022/04/22 01:24:27;;;;;;;2.30;2.10;;;;;;;11.43;57.19;100909.94;4964574;28;97277;-84
2022/04/22 01:26:57;;;;;;;2.73;2.00;;;;;;;11.46;57.14;100905.44;4967371;28;97045;-81
2022/04/22 01:29:23;;;;;;;4.47;2.23;;;;;;;11.43;57.08;100898.16;4963927;28;98638;-83
2022/04/22 01:31:49;;;;;;;1.60;1.50;;;;;;;11.42;56.95;100897.44;4966927;28;97123;-82
2022/04/22 01:34:15;;;;;;;2.10;1.70;;;;;;;11.39;56.79;100895.66;4963569;28;96959;-82
2022/04/22 01:36:40;;;;;;;2.80;1.80;;;;;;;11.42;56.70;100888.41;4968996;28;96870;-82
2022/04/22 01:39:06;;;;;;;3.37;2.00;;;;;;;11.38;56.60;100894.13;4988379;28;98831;-83
2022/04/22 01:41:31;;;;;;;3.53;2.20;;;;;;;11.39;56.57;100892.88;4973969;28;97648;-83
2022/04/22 01:43:57;;;;;;;1.57;1.43;;;;;;;11.42;56.55;100891.91;4969404;28;98032;-82
2022/04/22 01:46:23;;;;;;;2.90;1.80;;;;;;;11.47;56.43;100891.19;4974988;28;97058;-83
2022/04/22 01:48:49;;;;;;;2.33;1.67;;;;;;;11.45;56.34;100906.69;4974528;28;100036;-83
2022/04/22 01:51:15;;;;;;;1.43;1.30;;;;;;;11.45;56.17;100888.16;4970598;28;98331;-81
2022/04/22 01:53:41;;;;;;;1.87;1.70;;;;;;;11.37;56.21;100886.34;4973187;28;96857;-82
2022/04/22 01:56:06;;;;;;;1.53;1.43;;;;;;;11.33;56.32;100905.88;4970251;28;96843;-83
2022/04/22 01:58:32;;;;;;;2.00;1.27;;;;;;;11.36;56.21;100893.88;4972405;28;97639;-83
2022/04/22 02:00:58;;;;;;;1.50;1.33;;;;;;;11.35;56.03;100880.59;4970099;28;100583;-83
2022/04/22 02:03:23;;;;;;;1.50;1.40;;;;;;;11.37;55.99;100881.63;4962020;28;97014;-83
2022/04/22 02:05:49;;;;;;;1.30;1.17;;;;;;;11.36;55.85;100874.59;4972635;28;97181;-82
2022/04/22 02:08:14;;;;;;;1.93;1.50;;;;;;;11.34;56.02;100877.06;4962160;28;97498;-83
2022/04/22 02:10:41;;;;;;;2.30;1.60;;;;;;;11.33;56.01;100900.38;4979724;28;99588;-82
2022/04/22 02:13:08;;;;;;;1.20;1.10;;;;;;;11.28;55.69;100868.78;4975440;28;96958;-82
2022/04/22 02:15:33;;;;;;;4.57;1.30;;;;;;;11.32;55.56;100888.59;4978659;28;96921;-82
2022/04/22 02:17:58;;;;;;;1.17;1.03;;;;;;;11.30;55.58;100890.31;4971846;28;97348;-83
2022/04/22 02:20:24;;;;;;;1.30;1.23;;;;;;;11.29;55.44;100897.09;4959901;28;97358;-82
2022/04/22 02:22:49;;;;;;;2.20;1.13;;;;;;;11.28;55.39;100890.81;4969549;28;96828;-83
2022/04/22 02:25:14;;;;;;;1.30;1.20;;;;;;;11.25;55.43;100886.28;4975773;28;97201;-81
2022/04/22 02:30:24;;;;;;;1.87;1.57;;;;;;;11.18;55.14;100881.22;4965371;28;97251;-83
2022/04/22 02:32:50;;;;;;;1.27;1.20;;;;;;;11.13;55.10;100881.19;4976308;28;97147;-82
2022/04/22 02:35:16;;;;;;;1.20;1.10;;;;;;;11.12;55.00;100866.69;4970926;28;97393;-83
2022/04/22 02:37:42;;;;;;;2.93;1.20;;;;;;;11.12;55.27;100874.19;4976125;28;99100;-84
2022/04/22 02:40:08;;;;;;;2.20;1.23;;;;;;;11.12;55.05;100887.94;4971013;28;99733;-83
2022/04/22 02:45:29;;;;;;;1.93;1.40;;;;;;;11.09;54.84;100861.41;4971332;28;98072;-83
2022/04/22 02:47:56;;;;;;;1.83;1.53;;;;;;;11.09;54.63;100859.41;4975955;28;103668;-82
2022/04/22 02:50:22;;;;;;;1.93;0.97;;;;;;;11.04;54.68;100856.59;4973610;28;98692;-84
2022/04/22 02:52:48;;;;;;;1.53;1.43;;;;;;;11.01;54.58;100863.06;4968704;28;97922;-83
2022/04/22 02:55:13;;;;;;;2.27;1.60;;;;;;;10.97;54.57;100868.81;4972249;28;96841;-84
2022/04/22 02:57:40;;;;;;;1.87;1.27;;;;;;;10.97;54.59;100870.81;4972093;28;97646;-83
2022/04/22 03:00:06;;;;;;;1.37;1.27;;;;;;;10.97;54.56;100881.81;4964965;28;98175;-84
2022/04/22 03:02:31;;;;;;;1.53;1.37;;;;;;;10.97;54.41;100868.06;4972555;28;96783;-82
2022/04/22 03:04:57;;;;;;;1.50;1.40;;;;;;;10.98;54.33;100861.31;4961809;28;97340;-83
2022/04/22 03:07:23;;;;;;;1.67;1.57;;;;;;;11.02;54.43;100862.63;4968599;28;98140;-82
2022/04/22 03:09:48;;;;;;;2.17;1.70;;;;;;;10.96;54.40;100869.31;4973814;28;99613;-84
2022/04/22 03:12:14;;;;;;;1.53;1.40;;;;;;;10.91;54.41;100859.00;4969471;28;97090;-83
2022/04/22 03:14:40;;;;;;;1.30;1.20;;;;;;;10.87;54.14;100862.00;4976882;28;97268;-82
2022/04/22 03:17:08;;;;;;;2.53;1.30;;;;;;;10.83;54.23;100866.97;4981722;28;96869;-83
2022/04/22 03:19:34;;;;;;;0.93;0.93;;;;;;;10.86;54.37;100859.72;4974609;28;98647;-83
2022/04/22 03:21:59;;;;;;;1.30;1.00;;;;;;;10.86;54.18;100852.22;4969882;28;97176;-82
2022/04/22 03:24:25;;;;;;;1.00;1.00;;;;;;;10.82;54.39;100859.94;4974772;28;97339;-83
2022/04/22 03:26:51;;;;;;;1.90;1.80;;;;;;;10.74;54.33;100844.38;4968281;28;99263;-82
2022/04/22 03:29:16;;;;;;;2.43;1.37;;;;;;;10.70;54.20;100849.34;4976085;28;98975;-82
2022/04/22 03:31:42;;;;;;;2.13;1.40;;;;;;;10.70;54.14;100844.59;4974956;28;97013;-83
2022/04/22 03:34:07;;;;;;;1.37;1.30;;;;;;;10.73;54.20;100843.63;4977880;28;98028;-83
2022/04/22 03:36:33;;;;;;;2.93;1.50;;;;;;;10.70;54.21;100846.59;4975469;28;99552;-83
2022/04/22 03:38:59;;;;;;;5.30;3.43;;;;;;;10.74;54.05;100850.63;4971763;28;98784;-83
2022/04/22 03:41:24;;;;;;;5.43;4.60;;;;;;;10.79;53.83;100835.41;4976723;28;96921;-83
2022/04/22 03:43:50;;;;;;;3.40;2.80;;;;;;;10.71;54.01;100848.09;4974855;28;97105;-82
2022/04/22 03:46:15;;;;;;;3.70;2.23;;;;;;;10.65;53.93;100850.81;4970575;28;99174;-82
2022/04/22 03:48:41;;;;;;;1.90;1.80;;;;;;;10.51;54.07;100841.44;4971814;28;97282;-83
2022/04/22 03:51:06;;;;;;;1.70;1.60;;;;;;;10.54;54.06;100832.22;4970312;28;96635;-82
2022/04/22 03:53:34;;;;;;;2.40;1.40;;;;;;;10.51;54.05;100846.94;4964420;28;96732;-83
2022/04/22 03:58:10;;;;;;;2.50;1.50;;;;;;;10.49;54.11;100835.66;4970024;28;97720;-82
2022/04/22 03:58:49;;;;;;;2.03;1.53;;;;;;;10.45;53.99;100829.63;4969927;28;101479;-83
2022/04/22 04:01:14;;;;;;;2.80;1.60;;;;;;;10.44;53.91;100822.59;4975757;28;97032;-83
2022/04/22 04:03:39;;;;;;;1.53;1.20;;;;;;;10.42;54.03;100836.09;4974882;28;96906;-84
2022/04/22 04:06:07;;;;;;;1.07;1.07;;;;;;;10.37;54.16;100820.31;4971915;28;97324;-83
2022/04/22 04:08:33;;;;;;;1.50;1.40;;;;;;;10.34;54.18;100837.00;4974133;28;99207;-83
2022/04/22 04:16:27;;;;;;;1.43;1.33;;;;;;;10.29;54.10;100823.97;4972465;28;97246;-83
2022/04/22 04:23:14;;;;;;;2.40;2.20;;;;;;;10.23;54.14;100832.16;4971061;28;99714;-83
2022/04/22 04:24:22;;;;;;;2.10;1.50;;;;;;;10.13;54.48;100819.84;4962036;28;97445;-84
2022/04/22 04:26:48;;;;;;;3.30;2.13;;;;;;;10.07;54.50;100818.97;4972611;28;97652;-82
2022/04/22 04:29:13;;;;;;;2.30;1.90;;;;;;;10.06;54.37;100833.22;4969221;28;97384;-82
2022/04/22 04:31:39;;;;;;;1.80;1.70;;;;;;;10.09;54.53;100830.22;4962483;28;97170;-82
2022/04/22 04:34:04;;;;;;;1.50;1.40;;;;;;;10.17;54.21;100825.09;4956556;28;96996;-82
2022/04/22 04:36:31;;;;;;;4.37;1.87;;;;;;;10.13;54.22;100841.81;4968144;28;99009;-83
2022/04/22 04:38:56;;;;;;;3.53;1.53;;;;;;;10.12;54.37;100823.81;4966845;28;96997;-83
2022/04/22 04:41:23;;;;;;;1.90;1.60;;;;;;;10.09;54.41;100818.50;4972903;28;97955;-82
2022/04/22 04:43:48;;;;;;;1.97;1.87;;;;;;;10.05;54.30;100832.44;4966679;28;96965;-82
2022/04/22 04:46:14;;;;;;;3.57;1.80;;;;;;;10.07;54.43;100824.47;4969714;28;97796;-82
2022/04/22 04:48:39;;;;;;;2.00;1.90;;;;;;;10.10;54.56;100820.75;4968598;28;98683;-82
2022/04/22 04:51:06;;;;;;;1.67;1.30;;;;;;;10.11;54.33;100838.03;4962191;28;96973;-82
2022/04/22 04:53:31;;;;;;;5.53;2.00;;;;;;;10.10;54.42;100831.75;4967141;28;96689;-82
2022/04/22 04:55:57;;;;;;;1.97;1.50;;;;;;;10.04;54.40;100833.69;4969925;28;99992;-84
2022/04/22 04:58:22;;;;;;;1.40;1.30;;;;;;;10.04;54.48;100822.72;4963818;28;97744;-83
2022/04/22 05:00:48;;;;;;;6.73;1.50;;;;;;;10.03;54.35;100828.66;4985633;28;97186;-83
2022/04/22 05:03:14;;;;;;;3.17;1.93;;;;;;;9.95;54.33;100831.09;4950460;28;96848;-83
2022/04/22 05:05:40;;;;;;;1.60;1.50;;;;;;;9.90;54.60;100853.78;4979655;28;98503;-84
2022/04/22 05:08:06;;;;;;;1.87;1.70;;;;;;;9.87;54.56;100841.00;4982376;28;96902;-83
2022/04/22 05:10:33;;;;;;;3.20;1.73;;;;;;;9.89;54.55;100837.78;4969859;28;97299;-84
2022/04/22 05:13:03;;;;;;;4.63;2.20;;;;;;;9.88;54.54;100836.25;4976479;28;97099;-84
2022/04/22 05:15:29;;;;;;;4.27;2.43;;;;;;;9.85;54.52;100837.22;4971233;28;101045;-83
2022/04/22 05:17:55;;;;;;;1.70;1.57;;;;;;;9.80;54.85;100842.19;4969229;28;97175;-83
2022/04/22 05:20:25;;;;;;;2.00;1.80;;;;;;;9.75;54.74;100839.34;4965577;28;97243;-82
2022/04/22 05:22:51;;;;;;;3.03;2.03;;;;;;;9.72;55.02;100841.06;4966150;28;96881;-83
2022/04/22 05:25:17;;;;;;;1.90;1.80;;;;;;;9.67;54.76;100838.28;4970970;28;97875;-83
2022/04/22 05:27:43;;;;;;;5.53;2.10;;;;;;;9.63;55.08;100829.47;4969142;28;100113;-82
2022/04/22 05:32:55;;;;;;;2.20;2.00;;;;;;;9.69;55.14;100835.78;4967360;28;96937;-83
2022/04/22 05:35:22;;;;;;;2.50;1.93;;;;;;;9.74;54.91;100837.88;4970359;28;97081;-83
2022/04/22 05:37:50;;;;;;;4.33;2.10;;;;;;;9.76;54.84;100841.63;4980916;28;99628;-84
2022/04/22 05:40:20;;;;;;;2.33;2.13;;;;;;;9.87;54.68;100837.50;4983757;28;96971;-84
2022/04/22 05:42:47;;;;;;;2.90;1.93;;;;;;;9.92;54.86;100837.56;4970097;28;97188;-83
2022/04/22 05:45:14;;;;;;;2.47;2.27;;;;;;;9.90;54.76;100831.78;4969409;28;97603;-83
2022/04/22 05:47:42;;;;;;;7.53;2.40;;;;;;;9.94;54.95;100834.34;4971129;28;100195;-83
2022/04/22 05:50:09;;;;;;;4.80;2.50;;;;;;;9.91;54.81;100833.31;4968732;28;98723;-83
2022/04/22 05:52:37;;;;;;;3.23;2.47;;;;;;;9.87;54.80;100845.75;4964518;28;97200;-82
2022/04/22 05:55:04;;;;;;;5.30;2.47;;;;;;;9.81;55.12;100845.66;4970740;28;96831;-82
2022/04/22 05:57:30;;;;;;;3.50;2.07;;;;;;;9.82;55.06;100861.69;4966535;28;101628;-83
2022/04/22 05:59:55;;;;;;;3.17;2.30;;;;;;;9.88;55.12;100860.97;4971693;28;97448;-83
2022/04/22 06:02:21;;;;;;;2.60;2.20;;;;;;;9.91;55.00;100829.81;4962060;28;96946;-84
2022/04/22 06:04:46;;;;;;;4.00;2.27;;;;;;;9.87;55.10;100865.75;4973422;28;100184;-83
2022/04/22 06:07:12;;;;;;;3.73;2.73;;;;;;;9.93;55.05;100833.59;4962285;28;97294;-83
2022/04/22 06:12:22;;;;;;;4.00;3.07;;;;;;;10.01;54.93;100828.41;4970022;28;97931;-82
2022/04/22 06:14:47;;;;;;;2.50;2.30;;;;;;;10.11;54.69;100835.31;4960208;28;99372;-82
2022/04/22 06:17:13;;;;;;;2.23;2.03;;;;;;;10.14;54.70;100829.56;4967126;28;98898;-82
2022/04/22 06:19:38;;;;;;;4.03;2.67;;;;;;;10.10;54.48;100836.50;4966231;28;98012;-82
2022/04/22 06:22:04;;;;;;;3.67;2.17;;;;;;;10.16;54.96;100829.84;4970485;28;97242;-82
2022/04/22 06:24:30;;;;;;;2.87;2.60;;;;;;;10.25;54.83;100826.19;4963079;28;98453;-83
2022/04/22 06:26:55;;;;;;;2.67;2.47;;;;;;;10.37;54.60;100822.31;4967105;28;98835;-83
2022/04/22 06:29:21;;;;;;;3.17;2.17;;;;;;;10.33;54.48;100822.50;4964458;28;97249;-81
2022/04/22 06:31:47;;;;;;;2.67;2.37;;;;;;;10.22;54.59;100821.66;4972104;28;97361;-83
2022/04/22 06:34:13;;;;;;;3.10;2.80;;;;;;;10.21;54.51;100859.41;4966503;28;97905;-83
2022/04/22 06:36:38;;;;;;;4.63;2.90;;;;;;;10.31;54.64;100833.25;4969494;28;97452;-83
2022/04/22 06:39:04;;;;;;;3.40;2.60;;;;;;;10.39;54.57;100825.31;4969834;28;98528;-83
2022/04/22 06:46:52;;;;;;;5.00;2.77;;;;;;;10.57;54.45;100822.25;4966895;28;101973;-83
2022/04/22 06:49:18;;;;;;;5.37;3.20;;;;;;;10.55;54.49;100839.22;4964694;28;97082;-83
2022/04/22 06:51:43;;;;;;;6.10;3.00;;;;;;;10.60;54.41;100828.72;4967369;28;96847;-83
2022/04/22 06:54:09;;;;;;;2.57;2.37;;;;;;;10.68;54.30;100825.06;4960924;28;99683;-83
2022/04/22 06:56:38;;;;;;;2.80;2.60;;;;;;;10.75;54.31;100834.84;4971391;28;96849;-83
2022/04/22 06:59:04;;;;;;;5.93;3.70;;;;;;;10.76;54.14;100819.88;4975440;28;97298;-84
2022/04/22 07:01:29;;;;;;;4.83;3.83;;;;;;;10.88;54.23;100833.22;4971045;28;97382;-82
2022/04/22 07:03:56;;;;;;;5.30;4.00;;;;;;;10.78;54.20;100817.38;4988593;28;99652;-83
2022/04/22 07:06:21;;;;;;;3.50;3.10;;;;;;;10.76;54.27;100814.38;4975679;28;97305;-84
2022/04/22 07:08:48;;;;;;;3.90;2.93;;;;;;;10.79;54.02;100816.16;4968041;28;97118;-84
2022/04/22 07:11:21;;;;;;;4.70;3.30;;;;;;;10.84;54.20;100815.41;4947994;28;96831;-83
2022/04/22 07:13:47;;;;;;;3.67;3.20;;;;;;;10.95;54.26;100810.75;4968449;28;97992;-83
2022/04/22 07:16:16;;;;;;;7.13;3.00;;;;;;;11.03;54.10;100824.81;4964221;28;96944;-84
2022/04/22 07:18:42;;;;;;;5.73;3.67;;;;;;;11.16;54.02;100816.91;4976757;28;98046;-82
2022/04/22 07:21:08;;;;;;;3.77;3.23;;;;;;;11.13;54.01;100809.59;4950432;28;97378;-85
2022/04/22 07:23:34;;;;;;;5.27;3.27;;;;;;;11.17;54.12;100821.16;4978432;28;97121;-84
2022/04/22 07:26:00;;;;;;;3.70;2.83;;;;;;;11.31;54.10;100811.97;4968454;28;96947;-83
2022/04/22 07:28:28;;;;;;;3.13;2.80;;;;;;;11.42;53.99;100825.03;4980188;28;97305;-84
2022/04/22 07:30:56;;;;;;;4.90;2.60;;;;;;;11.57;53.50;100812.59;4993894;28;97145;-83
2022/04/22 07:33:21;;;;;;;3.87;3.30;;;;;;;11.68;53.53;100820.19;4967790;28;96979;-84
2022/04/22 07:35:47;;;;;;;4.07;3.70;;;;;;;11.68;53.40;100828.44;4968903;28;97209;-83
2022/04/22 07:38:12;;;;;;;3.90;3.10;;;;;;;11.74;53.56;100818.19;4969731;28;97229;-85
2022/04/22 07:40:40;;;;;;;5.07;3.80;;;;;;;11.78;53.44;100815.94;4970443;28;96893;-83
2022/04/22 07:48:35;;;;;;;8.70;3.30;;;;;;;11.90;53.38;100798.94;4977539;28;97116;-84
2022/04/22 07:51:01;;;;;;;2.73;2.43;;;;;;;11.86;53.18;100800.44;4975614;28;96913;-84
2022/04/22 07:53:26;;;;;;;3.07;2.80;;;;;;;11.89;53.26;100813.22;4968375;28;98893;-84
2022/04/22 07:55:52;;;;;;;2.93;2.63;;;;;;;12.10;53.36;100805.50;4966958;28;98526;-82
2022/04/22 07:58:17;;;;;;;4.00;3.60;;;;;;;12.17;53.10;100805.00;4983232;28;97347;-85
2022/04/22 08:00:47;;;;;;;4.20;3.80;;;;;;;12.22;53.01;100798.75;4972342;28;97029;-84
2022/04/22 08:03:14;;;;;;;4.33;3.50;;;;;;;12.09;53.17;100804.00;4965230;28;100014;-84
2022/04/22 08:05:39;;;;;;;9.70;4.33;;;;;;;12.03;53.23;100804.00;4981376;28;97277;-83
2022/04/22 08:08:06;;;;;;;7.97;3.80;;;;;;;12.03;53.42;100826.78;4971304;28;97005;-84
2022/04/22 08:10:32;;;;;;;6.10;3.83;;;;;;;12.26;53.24;100824.84;4968090;28;97318;-84
2022/04/22 08:12:57;;;;;;;4.80;3.43;;;;;;;12.33;53.04;100815.31;4968629;28;98220;-84
2022/04/22 08:15:23;;;;;;;6.03;3.53;;;;;;;12.40;53.24;100828.63;4966317;28;97371;-84
2022/04/22 08:17:48;;;;;;;4.90;3.10;;;;;;;12.48;52.78;100824.88;4967043;28;97280;-85
2022/04/22 08:20:14;;;;;;;5.43;2.63;;;;;;;12.68;52.77;100829.38;4968020;28;96984;-84
2022/04/22 08:22:40;;;;;;;2.73;2.43;;;;;;;12.90;52.47;100834.91;4973660;28;98891;-84
2022/04/22 08:25:05;;;;;;;3.13;2.90;;;;;;;13.01;52.08;100832.13;4967586;28;99442;-84
2022/04/22 08:27:31;;;;;;;3.77;3.30;;;;;;;13.03;51.76;100826.09;4975591;28;97391;-83
2022/04/22 08:29:58;;;;;;;3.73;2.80;;;;;;;13.03;52.00;100824.06;4966847;28;97288;-85
2022/04/22 08:32:23;;;;;;;4.33;3.60;;;;;;;13.10;51.97;100829.13;4969867;28;97383;-83
2022/04/22 08:34:49;;;;;;;6.00;4.17;;;;;;;13.05;51.97;100821.59;4968908;28;97965;-85
2022/04/22 08:37:14;;;;;;;4.47;3.67;;;;;;;13.06;51.97;100836.88;4968762;28;96822;-84
2022/04/22 08:39:39;;;;;;;2.93;2.53;;;;;;;13.22;52.00;100824.31;4976742;28;96924;-84
2022/04/22 08:42:05;;;;;;;4.43;2.87;;;;;;;13.41;51.73;100828.03;4968508;28;98759;-84
2022/04/22 08:44:31;;;;;;;4.00;2.70;;;;;;;13.52;51.64;100830.75;4975396;28;99367;-85
2022/04/22 08:50:02;;;;;;;5.23;3.07;;;;;;;13.51;51.47;100820.97;4969667;28;96820;-84
2022/04/22 08:52:32;;;;;;;2.50;2.27;;;;;;;13.60;51.37;100814.41;4974329;28;99644;-83
2022/04/22 08:54:59;;;;;;;3.50;3.17;;;;;;;13.63;51.30;100818.91;4960381;28;97847;-83
2022/04/22 08:57:24;;;;;;;3.07;2.80;;;;;;;13.93;51.28;100812.22;4969584;28;96955;-84
2022/04/22 08:59:50;;;;;;;2.20;2.00;;;;;;;14.40;51.12;100828.78;4967184;28;96755;-84
2022/04/22 09:02:17;;;;;;;6.50;3.23;;;;;;;14.52;50.88;100814.38;4970253;28;97073;-84
2022/04/22 09:04:42;;;;;;;4.50;3.17;;;;;;;14.62;50.41;100804.47;4972565;28;100725;-84
2022/04/22 09:07:13;;;;;;;6.00;3.13;;;;;;;14.73;50.24;100807.16;4975446;28;97029;-85
2022/04/22 09:09:42;;;;;;;2.67;2.33;;;;;;;15.05;50.44;100806.59;4971104;28;96789;-84
2022/04/22 09:12:12;;;;;;;2.30;2.10;;;;;;;15.52;50.23;100791.22;4967794;28;99841;-85
2022/04/22 09:14:53;;;;;;;2.97;2.67;;;;;;;15.94;49.55;100789.66;4971226;28;97633;-84
2022/04/22 09:17:29;;;;;;;4.20;2.53;;;;;;;16.20;48.58;100801.63;4969564;28;97309;-83
2022/04/22 09:19:57;;;;;;;3.00;2.27;;;;;;;16.31;48.96;100787.59;4966940;28;97532;-84
2022/04/22 09:22:28;;;;;;;3.00;2.70;;;;;;;16.55;47.89;100794.28;4974161;28;98461;-82
2022/04/22 09:24:55;;;;;;;2.63;2.43;;;;;;;16.55;48.29;100783.94;4968187;28;97979;-84
2022/04/22 09:27:48;;;;;;;2.80;2.53;;;;;;;16.63;47.37;100775.72;4969683;28;97182;-84
2022/04/22 09:30:13;;;;;;;2.37;2.17;;;;;;;16.82;48.19;100787.53;4967381;28;97052;-83
2022/04/22 09:32:40;;;;;;;3.57;2.93;;;;;;;16.70;47.70;100783.44;4974521;28;97455;-82
2022/04/22 09:35:15;;;;;;;4.07;2.77;;;;;;;16.53;45.99;100780.19;4983095;28;98780;-83
2022/04/22 09:43:38;;;;;;;2.10;2.00;;;;;;;16.67;47.23;100749.13;4969693;28;101956;-83
2022/04/22 09:46:03;;;;;;;2.70;2.50;;;;;;;16.70;48.02;100756.41;4979273;28;97024;-83
2022/04/22 09:48:44;;;;;;;4.60;2.37;;;;;;;16.78;47.06;100756.50;4967669;28;97039;-84
2022/04/22 09:51:27;;;;;;;4.70;2.03;;;;;;;16.85;45.42;100751.06;4977654;28;97551;-82
2022/04/22 09:54:07;;;;;;;3.93;2.80;;;;;;;16.82;46.71;100748.63;4957727;28;97195;-83
2022/04/22 09:56:33;;;;;;;2.97;2.57;;;;;;;16.98;47.58;100753.09;4965050;28;101530;-84
2022/04/22 09:58:58;;;;;;;2.53;2.33;;;;;;;17.11;47.34;100753.84;4966662;28;96647;-85
2022/04/22 10:01:25;;;;;;;2.77;2.13;;;;;;;17.26;47.41;100753.31;4971718;28;96880;-84
2022/04/22 10:03:50;;;;;;;4.43;2.37;;;;;;;17.44;47.16;100741.31;4968810;28;100111;-84
2022/04/22 10:06:18;;;;;;;2.73;2.50;;;;;;;17.49;46.30;100746.00;4975542;28;96920;-84
2022/04/22 10:08:46;;;;;;;2.83;2.37;;;;;;;17.51;46.83;100743.47;4965306;28;97304;-84
2022/04/22 10:11:14;;;;;;;6.57;2.60;;;;;;;17.63;46.54;100733.59;4967030;28;97007;-83
2022/04/22 10:13:43;;;;;;;2.67;2.57;;;;;;;17.61;46.21;100749.31;4968569;28;97595;-82
2022/04/22 10:16:10;;;;;;;3.90;2.70;;;;;;;17.55;46.33;100760.56;4974174;28;96881;-84
2022/04/22 10:18:35;;;;;;;2.70;2.50;;;;;;;17.51;46.32;100745.50;4983410;28;96684;-82
2022/04/22 10:21:02;;;;;;;2.80;2.60;;;;;;;17.38;46.54;100756.63;4972611;28;97048;-84
2022/04/22 10:23:30;;;;;;;7.20;2.50;;;;;;;17.45;46.39;100740.00;4963370;28;97631;-83
2022/04/22 10:25:56;;;;;;;2.70;2.50;;;;;;;17.62;46.82;100754.34;4972275;28;96885;-84
2022/04/22 10:28:23;;;;;;;4.53;2.03;;;;;;;17.87;46.19;100730.50;4966244;28;96750;-83
2022/04/22 10:30:51;;;;;;;2.63;2.43;;;;;;;18.02;46.20;100734.75;4984729;28;97594;-84
2022/04/22 10:33:16;;;;;;;3.00;2.70;;;;;;;17.94;45.63;100746.53;4974756;28;96863;-83
2022/04/22 10:35:44;;;;;;;3.50;2.40;;;;;;;17.91;45.64;100732.94;4968961;28;97230;-84
2022/04/22 10:38:39;;;;;;;2.97;2.37;;;;;;;17.69;42.45;100730.69;4966210;28;96703;-83
2022/04/22 10:41:19;;;;;;;3.00;1.93;;;;;;;17.63;45.33;100739.16;4982264;28;97217;-84
2022/04/22 10:47:13;;;;;;;2.37;2.17;;;;;;;17.76;45.57;100724.44;4968002;28;102744;-85
2022/04/22 10:49:43;;;;;;;2.20;2.00;;;;;;;17.89;45.40;100722.38;4966475;28;96898;-85
2022/04/22 10:52:13;;;;;;;2.50;2.30;;;;;;;18.10;45.47;100725.16;4965350;28;96695;-83
2022/04/22 10:55:06;;;;;;;2.93;2.50;;;;;;;18.27;43.19;100721.97;4966618;28;96850;-84
2022/04/22 10:57:33;;;;;;;4.53;2.50;;;;;;;18.44;45.22;100720.28;4964798;28;102544;-84
2022/04/22 11:00:09;;;;;;;5.90;2.47;;;;;;;18.77;44.53;100715.88;4966453;28;97892;-85
2022/04/22 11:02:36;;;;;;;3.93;2.37;;;;;;;19.00;44.90;100719.53;4977750;28;97307;-84
2022/04/22 11:05:19;;;;;;;2.57;2.17;;;;;;;19.17;44.20;100721.88;4967751;28;99417;-84
2022/04/22 11:07:50;;;;;;;2.60;2.33;;;;;;;19.47;42.89;100719.22;4981957;28;101579;-85
2022/04/22 11:10:51;;;;;;;3.60;2.37;;;;;;;19.76;42.88;100703.13;4965741;28;96933;-86
2022/04/22 11:13:39;;;;;;;3.40;1.80;;;;;;;19.92;41.24;100710.97;4945641;28;96992;-84
2022/04/22 11:16:12;;;;;;;2.40;2.20;;;;;;;19.95;43.51;100709.13;4962112;28;98048;-84
2022/04/22 11:18:39;;;;;;;2.50;1.80;;;;;;;20.02;43.19;100716.78;4967668;28;97509;-83
2022/04/22 11:21:10;;;;;;;2.80;2.10;;;;;;;19.80;42.87;100720.25;4967894;28;97064;-84
2022/04/22 11:23:41;;;;;;;2.93;2.53;;;;;;;19.78;43.07;100711.69;4966211;28;96790;-83
2022/04/22 11:26:08;;;;;;;2.33;1.87;;;;;;;20.15;43.58;100716.59;4961864;28;98120;-85
2022/04/22 11:28:35;;;;;;;2.00;1.90;;;;;;;20.57;43.04;100700.97;4962652;28;97395;-85
2022/04/22 11:31:06;;;;;;;2.77;2.37;;;;;;;20.92;42.13;100699.22;4975367;28;97023;-85
2022/04/22 11:33:53;;;;;;;2.50;2.03;;;;;;;21.06;40.83;100700.50;4967017;28;98044;-83
2022/04/22 11:36:19;;;;;;;1.60;1.50;;;;;;;21.12;42.26;100689.84;4967593;28;96995;-84
2022/04/22 11:38:49;;;;;;;2.13;2.00;;;;;;;21.17;40.46;100677.72;4945081;28;97739;-82
2022/04/22 11:41:16;;;;;;;2.70;2.50;;;;;;;21.01;41.08;100686.72;4946626;28;96683;-82
2022/04/22 11:43:41;;;;;;;2.53;2.33;;;;;;;20.86;41.69;100670.69;4944435;28;96951;-82
2022/04/22 11:46:08;;;;;;;2.50;2.03;;;;;;;20.99;41.45;100683.72;4947212;28;98176;-82
2022/04/22 11:48:33;;;;;;;2.93;2.53;;;;;;;21.22;41.49;100673.22;4943040;28;98667;-82
2022/04/22 11:51:00;;;;;;;3.53;2.20;;;;;;;21.32;41.10;100677.63;4947983;28;97086;-83
2022/04/22 11:53:26;;;;;;;3.17;1.87;;;;;;;21.68;41.31;100685.66;4951958;28;96768;-83
2022/04/22 11:55:52;;;;;;;2.23;2.00;;;;;;;21.87;40.29;100668.38;4981457;28;97081;-82
2022/04/22 11:58:29;;;;;;;3.17;2.47;;;;;;;21.97;40.73;100675.63;4970669;28;99426;-83
2022/04/22 12:06:25;;;;;;;6.17;2.23;;;;;;;22.80;39.84;100668.53;4967778;28;101591;-83
2022/04/22 12:08:50;;;;;;;2.20;2.10;;;;;;;22.91;39.44;100668.03;4971006;28;98672;-81
2022/04/22 12:11:16;;;;;;;1.70;1.57;;;;;;;23.22;39.47;100683.16;4969336;28;96902;-84
2022/04/22 12:13:42;;;;;;;2.13;1.70;;;;;;;23.20;39.06;100660.56;4975640;28;96924;-83
2022/04/22 12:16:07;;;;;;;2.37;2.17;;;;;;;23.35;39.00;100668.81;4967581;28;98729;-82
2022/04/22 12:18:36;;;;;;;1.50;1.40;;;;;;;23.16;35.27;100660.22;4974660;28;96733;-81